Time;durP1;ratioP1;P1;durP2;ratioP2;P2;SDS_P1;SDS_P2;PMS_P1;PMS_P2;Temp;Humidity;BMP_temperature;BMP_pressure;BME280_temperature;BME280_humidity;BME280_pressure;Samples;Min_cycle;Max_cycle;Signal;HPM_P1;HPM_P2
2022/08/14 00:02:03;;;;;;;2.70;2.50;;;;;;;20.44;79.26;101489.72;4972463;28;20177;-50
2022/08/14 00:04:30;;;;;;;3.55;2.40;;;;;;;20.24;79.89;101487.50;4972365;28;20229;-52
2022/08/14 00:06:55;;;;;;;5.55;2.40;;;;;;;20.12;80.85;101483.78;4970831;28;20217;-51
2022/08/14 00:09:22;;;;;;;4.47;2.75;;;;;;;20.02;81.44;101483.50;4972584;28;20624;-51
2022/08/14 00:11:47;;;;;;;4.50;2.65;;;;;;;20.04;81.63;101484.28;4971501;28;20215;-50
2022/08/14 00:14:13;;;;;;;2.97;2.65;;;;;;;20.12;81.60;101479.19;4971848;28;20233;-50
2022/08/14 00:16:38;;;;;;;4.25;2.35;;;;;;;20.19;81.43;101470.63;4971340;28;20560;-53
2022/08/14 00:19:04;;;;;;;4.20;2.63;;;;;;;20.25;80.83;101462.91;4972400;28;20178;-51
2022/08/14 00:21:29;;;;;;;2.85;2.17;;;;;;;20.27;81.04;101465.50;4971898;28;20264;-51
2022/08/14 00:23:55;;;;;;;2.55;2.35;;;;;;;20.22;80.37;101460.38;4972291;28;20210;-52
2022/08/14 00:26:22;;;;;;;3.38;2.58;;;;;;;20.23;80.59;101458.56;4972093;28;20189;-52
2022/08/14 00:28:49;;;;;;;3.38;2.40;;;;;;;20.28;80.53;101464.53;4971153;28;20272;-51
2022/08/14 00:31:14;;;;;;;2.53;2.20;;;;;;;20.10;80.56;101464.84;4972179;28;20174;-51
2022/08/14 00:33:40;;;;;;;2.97;2.40;;;;;;;20.03;81.39;101462.63;4971862;28;20232;-51
2022/08/14 00:36:06;;;;;;;2.45;2.25;;;;;;;20.12;81.31;101464.75;4972189;28;20593;-53
2022/08/14 00:38:32;;;;;;;2.70;2.30;;;;;;;19.93;80.95;101465.09;4972204;28;20216;-50
2022/08/14 00:40:58;;;;;;;3.42;2.42;;;;;;;19.82;82.19;101460.38;4972350;28;20536;-51
2022/08/14 00:43:23;;;;;;;3.60;2.35;;;;;;;19.91;82.36;101459.75;4971545;28;20217;-52
2022/08/14 00:45:49;;;;;;;3.97;2.50;;;;;;;19.98;81.86;101454.78;4954713;28;20316;-51
2022/08/14 00:48:17;;;;;;;3.05;2.30;;;;;;;19.99;81.68;101466.56;4970774;28;20215;-50
2022/08/14 00:50:43;;;;;;;2.15;2.03;;;;;;;19.93;81.66;101455.09;4971898;28;20188;-52
2022/08/14 00:53:09;;;;;;;5.50;2.30;;;;;;;19.82;81.79;101449.50;4970719;28;20286;-53
2022/08/14 00:55:39;;;;;;;4.43;2.88;;;;;;;19.27;83.60;101450.41;4971925;28;20340;-51
2022/08/14 01:00:49;;;;;;;2.95;2.60;;;;;;;19.18;85.23;101454.59;4971704;28;20195;-51
2022/08/14 01:03:17;;;;;;;4.30;2.35;;;;;;;19.12;85.31;101446.84;4970355;28;20696;-53
2022/08/14 01:05:46;;;;;;;3.42;2.40;;;;;;;18.85;86.43;101446.78;4972012;28;20206;-52
2022/08/14 01:08:13;;;;;;;4.93;2.60;;;;;;;18.98;87.03;101439.59;4972073;28;20193;-51
2022/08/14 01:10:51;;;;;;;2.75;2.55;;;;;;;19.12;86.39;101435.97;4972140;28;20669;-53
2022/08/14 01:13:24;;;;;;;2.85;2.40;;;;;;;19.14;85.67;101431.31;4971152;28;20624;-51
2022/08/14 01:15:53;;;;;;;2.85;2.40;;;;;;;19.24;85.41;101432.47;4970139;28;20180;-52
2022/08/14 01:21:16;;;;;;;2.70;2.38;;;;;;;19.11;85.00;101431.50;4970368;28;20277;-51
2022/08/14 01:23:46;;;;;;;4.05;2.53;;;;;;;19.00;85.69;101431.31;4971117;28;20616;-53
2022/08/14 01:26:14;;;;;;;4.15;2.30;;;;;;;18.99;86.43;101429.59;4972875;28;20686;-51
2022/08/14 01:28:41;;;;;;;3.78;2.65;;;;;;;18.72;86.96;101419.50;4990892;28;20639;-52
2022/08/14 01:31:14;;;;;;;2.85;2.20;;;;;;;18.70;87.74;101422.28;4990023;28;20252;-51
2022/08/14 01:33:44;;;;;;;3.53;2.78;;;;;;;18.64;87.87;101421.81;4994693;28;20308;-54
2022/08/14 01:36:11;;;;;;;2.58;2.38;;;;;;;18.69;87.96;101416.94;4994927;28;20224;-53
2022/08/14 01:38:39;;;;;;;2.50;2.30;;;;;;;18.75;87.94;101422.00;4994810;28;20200;-53
2022/08/14 01:41:19;;;;;;;3.13;2.55;;;;;;;18.60;87.71;101415.69;4994735;28;20185;-51
2022/08/14 01:43:48;;;;;;;5.18;2.70;;;;;;;18.53;88.98;101417.03;4994196;28;20197;-50
2022/08/14 01:46:24;;;;;;;4.75;2.63;;;;;;;18.49;89.42;101423.63;4994070;28;20207;-50
2022/08/14 01:48:56;;;;;;;3.20;2.90;;;;;;;18.46;89.71;101413.84;4994553;28;20165;-50
2022/08/14 01:51:23;;;;;;;2.72;2.30;;;;;;;18.52;89.84;101421.59;4994751;28;20596;-50
2022/08/14 01:54:04;;;;;;;2.42;2.22;;;;;;;18.63;89.19;101420.03;4994088;28;20197;-52
2022/08/14 01:56:35;;;;;;;2.67;2.47;;;;;;;18.62;89.07;101412.88;4993300;28;20212;-50
2022/08/14 01:59:02;;;;;;;2.72;2.28;;;;;;;18.58;88.65;101414.91;4994403;28;20181;-51
2022/08/14 02:01:28;;;;;;;2.42;2.22;;;;;;;18.77;88.79;101420.06;4994365;28;20165;-50
2022/08/14 02:03:53;;;;;;;2.88;2.67;;;;;;;18.73;88.21;101411.22;4993885;28;20205;-51
2022/08/14 02:06:20;;;;;;;2.83;2.33;;;;;;;18.71;88.32;101415.00;4994500;28;20201;-51
2022/08/14 02:08:45;;;;;;;2.50;2.40;;;;;;;18.58;89.22;101406.75;4994389;28;20208;-50
2022/08/14 02:11:23;;;;;;;3.90;2.38;;;;;;;18.48;89.15;101402.91;4993867;28;20596;-50
2022/08/14 02:13:49;;;;;;;2.70;2.50;;;;;;;18.62;88.76;101402.03;4994308;28;20201;-50
2022/08/14 02:16:18;;;;;;;6.53;2.80;;;;;;;18.59;88.49;101408.53;4994187;28;20185;-51
2022/08/14 02:18:45;;;;;;;3.95;2.60;;;;;;;18.67;88.76;101398.06;4994167;28;20173;-51
2022/08/14 02:21:11;;;;;;;2.95;2.50;;;;;;;18.75;88.37;101400.28;4994149;28;20625;-51
2022/08/14 02:23:38;;;;;;;4.53;2.80;;;;;;;18.63;87.95;101401.03;4993325;28;20229;-50
2022/08/14 02:26:15;;;;;;;4.53;2.80;;;;;;;18.31;89.06;101403.94;4993333;28;20580;-52
2022/08/14 02:28:41;;;;;;;2.72;2.53;;;;;;;18.18;89.68;101402.94;4974530;28;20182;-50
2022/08/14 02:31:07;;;;;;;5.40;2.97;;;;;;;18.07;90.90;101395.47;4974578;28;20540;-51
2022/08/14 02:33:34;;;;;;;7.70;3.15;;;;;;;18.09;91.33;101391.69;4973790;28;20213;-51
2022/08/14 02:36:02;;;;;;;2.58;2.38;;;;;;;18.30;91.23;101384.09;4974409;28;20166;-51
2022/08/14 02:38:28;;;;;;;3.55;2.47;;;;;;;18.42;90.55;101379.72;4974121;28;20197;-51
2022/08/14 02:40:54;;;;;;;3.22;2.63;;;;;;;18.42;90.23;101387.00;4974289;28;20197;-51
2022/08/14 02:43:20;;;;;;;3.00;2.65;;;;;;;18.25;90.61;101377.19;4973592;28;20677;-51
2022/08/14 02:45:46;;;;;;;3.35;2.30;;;;;;;18.43;90.70;101376.06;4973467;28;20325;-53
2022/08/14 02:48:13;;;;;;;2.95;2.65;;;;;;;18.37;90.06;101381.84;4974113;28;20178;-50
2022/08/14 02:50:41;;;;;;;2.65;2.22;;;;;;;18.42;90.33;101387.88;4973879;28;20182;-51
2022/08/14 02:53:10;;;;;;;5.32;2.42;;;;;;;18.52;90.19;101389.03;4973479;28;20235;-53
2022/08/14 02:55:38;;;;;;;3.70;2.60;;;;;;;18.43;89.92;101386.91;4973994;28;20309;-51
2022/08/14 02:58:05;;;;;;;4.38;3.00;;;;;;;18.45;91.74;101393.09;4973645;28;20185;-48
2022/08/14 03:00:34;;;;;;;3.25;3.00;;;;;;;18.46;92.45;101378.56;4973951;28;20178;-49
2022/08/14 03:03:01;;;;;;;4.13;2.72;;;;;;;18.35;93.29;101377.50;4973341;28;20308;-49
2022/08/14 03:05:30;;;;;;;3.95;2.55;;;;;;;18.45;93.02;101371.38;4973492;28;20198;-49
2022/08/14 03:08:07;;;;;;;3.10;2.58;;;;;;;18.47;92.54;101374.88;4973339;28;20193;-48
2022/08/14 03:10:33;;;;;;;3.15;2.80;;;;;;;18.46;92.80;101375.00;4973695;28;20175;-49
2022/08/14 03:13:03;;;;;;;2.53;2.33;;;;;;;18.59;92.86;101362.38;4973235;28;20792;-50
2022/08/14 03:15:39;;;;;;;2.70;2.50;;;;;;;18.66;92.77;101368.28;4973746;28;20170;-48
2022/08/14 03:18:09;;;;;;;3.30;2.70;;;;;;;18.64;92.77;101360.25;4975080;28;20182;-48
2022/08/14 03:20:34;;;;;;;3.08;2.80;;;;;;;18.64;93.24;101356.66;4983550;28;20532;-49
2022/08/14 03:23:01;;;;;;;2.50;2.30;;;;;;;18.65;93.14;101370.16;4972925;28;20209;-50
2022/08/14 03:25:30;;;;;;;2.83;2.63;;;;;;;18.62;92.81;101353.19;4972966;28;20192;-49
2022/08/14 03:27:55;;;;;;;2.92;2.70;;;;;;;18.58;93.04;101348.91;4982595;28;20228;-48
2022/08/14 03:30:21;;;;;;;2.58;2.47;;;;;;;18.43;93.12;101351.63;4977202;28;20194;-51
2022/08/14 03:32:46;;;;;;;3.28;2.72;;;;;;;18.18;93.64;101349.56;4973165;28;20555;-51
2022/08/14 03:35:12;;;;;;;5.68;2.88;;;;;;;18.03;94.89;101339.66;4973335;28;20200;-50
2022/08/14 03:37:38;;;;;;;2.60;2.40;;;;;;;18.16;95.15;101347.94;4972881;28;20172;-50
2022/08/14 03:40:05;;;;;;;2.55;2.40;;;;;;;18.15;94.41;101338.91;4973117;28;20162;-50
2022/08/14 03:42:31;;;;;;;3.00;2.70;;;;;;;18.20;94.27;101335.91;4955657;28;20202;-49
2022/08/14 03:44:57;;;;;;;3.00;2.30;;;;;;;18.21;94.11;101334.94;4972597;28;20186;-48
2022/08/14 03:47:24;;;;;;;4.43;2.53;;;;;;;18.28;94.28;101328.19;4973003;28;20567;-51
2022/08/14 03:49:49;;;;;;;3.25;2.60;;;;;;;18.29;93.96;101333.50;4972698;28;20178;-50
2022/08/14 03:52:15;;;;;;;2.75;2.55;;;;;;;18.30;93.64;101324.41;4972544;28;20184;-50
2022/08/14 03:54:40;;;;;;;2.35;2.25;;;;;;;18.32;93.90;101329.72;4972076;28;20657;-49
2022/08/14 03:57:06;;;;;;;2.88;2.67;;;;;;;18.35;94.14;101328.66;4972229;28;20202;-48
2022/08/14 03:59:32;;;;;;;2.65;2.45;;;;;;;18.17;94.25;101330.66;4972340;28;20160;-50
2022/08/14 04:01:57;;;;;;;3.00;2.65;;;;;;;18.29;94.43;101329.91;4972492;28;20626;-48
2022/08/14 04:04:23;;;;;;;3.83;2.80;;;;;;;18.33;94.44;101336.91;4970973;28;20201;-50
2022/08/14 04:06:50;;;;;;;3.90;2.72;;;;;;;18.24;94.18;101329.34;4971965;28;20622;-49
2022/08/14 04:09:16;;;;;;;2.85;2.55;;;;;;;18.25;94.66;101334.66;4973036;28;20663;-49
2022/08/14 04:11:42;;;;;;;3.08;2.45;;;;;;;18.04;95.19;101331.44;4980223;28;20213;-50
2022/08/14 04:14:08;;;;;;;4.70;3.00;;;;;;;17.99;95.77;101344.41;4981671;28;20197;-50
2022/08/14 04:16:34;;;;;;;5.53;3.25;;;;;;;17.97;96.03;101340.03;4981294;28;20350;-49
2022/08/14 04:19:02;;;;;;;3.03;2.70;;;;;;;18.07;96.04;101336.66;4980656;28;20552;-49
2022/08/14 04:21:28;;;;;;;2.70;2.50;;;;;;;18.12;96.16;101329.09;4980984;28;20177;-51
2022/08/14 04:23:57;;;;;;;2.60;2.40;;;;;;;18.17;95.83;101325.25;4980634;28;20673;-51
2022/08/14 04:26:23;;;;;;;2.72;2.45;;;;;;;18.20;95.45;101325.06;4990278;28;20227;-49
2022/08/14 04:28:49;;;;;;;2.63;2.50;;;;;;;18.26;95.21;101321.97;4990734;28;20192;-48
2022/08/14 04:31:16;;;;;;;2.80;2.58;;;;;;;18.26;95.21;101333.69;4991193;28;20192;-49
2022/08/14 04:33:42;;;;;;;3.25;2.90;;;;;;;18.19;95.77;101343.19;4990357;28;20340;-50
2022/08/14 04:36:08;;;;;;;2.67;2.42;;;;;;;18.22;95.96;101334.00;4990975;28;20539;-51
2022/08/14 04:44:19;;;;;;;3.95;2.42;;;;;;;18.12;96.68;101320.97;4987926;28;20312;-49
2022/08/14 04:49:31;;;;;;;3.13;2.90;;;;;;;18.52;96.33;101302.19;4989457;28;20193;-51
2022/08/14 04:51:59;;;;;;;2.92;2.65;;;;;;;18.75;96.32;101305.25;4990913;28;20161;-50
2022/08/14 04:54:25;;;;;;;3.80;2.83;;;;;;;18.70;95.38;101307.41;4987130;28;20208;-49
2022/08/14 04:56:53;;;;;;;2.90;2.67;;;;;;;18.83;95.14;101305.69;4980637;28;20209;-50
2022/08/14 04:59:18;;;;;;;6.15;3.80;;;;;;;19.07;95.49;101310.47;4980206;28;20260;-49
2022/08/14 05:01:44;;;;;;;6.25;4.15;;;;;;;19.39;96.55;101304.72;4981812;28;20252;-51
2022/08/14 05:04:11;;;;;;;7.30;5.18;;;;;;;19.55;97.73;101295.41;4979347;28;20202;-50
2022/08/14 05:06:37;;;;;;;5.78;4.93;;;;;;;19.66;98.67;101308.28;4980477;28;20256;-52
2022/08/14 05:09:03;;;;;;;4.90;4.38;;;;;;;19.87;98.49;101297.78;4984899;28;20615;-52
2022/08/14 05:11:32;;;;;;;4.68;3.90;;;;;;;19.84;98.32;101302.56;4975628;28;20186;-49
2022/08/14 05:14:01;;;;;;;5.57;4.05;;;;;;;19.92;97.88;101305.63;4974981;28;20197;-49
2022/08/14 05:16:31;;;;;;;4.00;3.60;;;;;;;20.00;97.77;101307.81;4975004;28;20193;-50
2022/08/14 05:18:57;;;;;;;5.28;3.50;;;;;;;20.03;97.85;101310.28;4975708;28;20269;-50
2022/08/14 05:21:23;;;;;;;5.65;3.38;;;;;;;20.19;98.06;101293.78;4982549;28;20186;-50
2022/08/14 05:23:50;;;;;;;5.93;2.78;;;;;;;20.24;97.27;101294.31;4974820;28;20202;-50
2022/08/14 05:26:17;;;;;;;5.57;2.63;;;;;;;20.43;96.56;101288.41;4973655;28;20576;-52
2022/08/14 05:28:44;;;;;;;8.77;2.80;;;;;;;20.32;95.67;101286.47;4975274;28;20198;-49
2022/08/14 05:31:12;;;;;;;3.35;2.33;;;;;;;20.31;96.46;101290.16;4974079;28;20190;-48
2022/08/14 05:33:39;;;;;;;4.35;2.10;;;;;;;20.49;96.02;101282.53;4974952;28;20193;-49
2022/08/14 05:36:09;;;;;;;2.22;1.92;;;;;;;20.49;95.77;101294.28;4975504;28;20549;-49
2022/08/14 05:38:43;;;;;;;4.00;2.00;;;;;;;20.73;94.88;101288.06;4974884;28;20189;-50
2022/08/14 05:41:14;;;;;;;6.88;2.55;;;;;;;20.83;93.71;101286.38;4975460;28;20666;-50
2022/08/14 05:43:40;;;;;;;9.18;2.63;;;;;;;20.73;93.83;101280.75;4974326;28;20209;-48
2022/08/14 05:46:09;;;;;;;10.30;2.15;;;;;;;20.90;92.98;101281.34;4974164;28;20548;-49
2022/08/14 05:48:34;;;;;;;5.38;2.03;;;;;;;21.08;92.50;101285.44;4975224;28;20173;-49
2022/08/14 05:51:00;;;;;;;5.85;1.90;;;;;;;21.21;91.80;101282.66;4975012;28;20177;-50
2022/08/14 05:53:27;;;;;;;5.85;1.88;;;;;;;21.38;90.95;101284.06;4974581;28;20285;-49
2022/08/14 05:55:54;;;;;;;7.95;2.03;;;;;;;21.43;90.17;101276.47;4974961;28;20173;-51
2022/08/14 05:58:20;;;;;;;4.75;1.80;;;;;;;21.64;89.21;101268.47;4974805;28;20638;-51
2022/08/14 06:00:46;;;;;;;6.43;2.05;;;;;;;21.66;89.22;101268.34;4974204;28;20617;-51
2022/08/14 06:03:15;;;;;;;5.90;1.83;;;;;;;21.87;88.79;101260.34;4974451;28;20305;-51
2022/08/14 06:05:43;;;;;;;5.60;1.92;;;;;;;22.14;87.78;101255.41;4974651;28;20300;-49
2022/08/14 06:08:20;;;;;;;4.28;1.60;;;;;;;22.37;85.67;101263.66;4974800;28;20727;-51
2022/08/14 06:10:47;;;;;;;4.93;1.60;;;;;;;22.30;85.77;101246.00;4974667;28;20688;-49
2022/08/14 06:13:14;;;;;;;3.50;1.63;;;;;;;22.30;85.31;101248.72;4974166;28;20205;-51
2022/08/14 06:15:40;;;;;;;4.90;1.80;;;;;;;22.36;85.43;101259.16;4974811;28;20209;-50
2022/08/14 06:18:06;;;;;;;6.90;2.00;;;;;;;22.52;84.65;101253.31;4974350;28;20178;-49
2022/08/14 06:20:32;;;;;;;6.85;2.00;;;;;;;22.49;84.29;101261.75;4973338;28;20182;-50
2022/08/14 06:22:58;;;;;;;6.18;1.70;;;;;;;22.66;84.26;101260.38;4974039;28;20567;-51
2022/08/14 06:25:24;;;;;;;8.32;1.95;;;;;;;22.62;83.55;101257.03;4974069;28;20560;-50
2022/08/14 06:27:50;;;;;;;7.28;2.00;;;;;;;22.46;83.42;101264.75;4974349;28;20243;-50
2022/08/14 06:30:21;;;;;;;8.02;2.05;;;;;;;22.73;83.10;101256.16;4974163;28;20220;-51
2022/08/14 06:32:48;;;;;;;3.70;1.65;;;;;;;22.80;83.29;101247.28;4974287;28;20197;-51
2022/08/14 06:35:14;;;;;;;2.75;1.42;;;;;;;22.99;82.89;101246.63;4973545;28;20629;-50
2022/08/14 06:37:45;;;;;;;8.73;1.95;;;;;;;23.41;81.36;101243.16;4974116;28;20610;-52
2022/08/14 06:40:14;;;;;;;6.03;1.80;;;;;;;23.12;81.65;101237.44;4974428;28;20280;-50
2022/08/14 06:42:40;;;;;;;4.50;1.67;;;;;;;23.36;81.35;101232.59;4973937;28;20333;-51
2022/08/14 06:45:07;;;;;;;2.83;1.67;;;;;;;23.70;80.96;101229.66;4973791;28;20522;-50
2022/08/14 06:47:36;;;;;;;3.85;1.85;;;;;;;23.86;79.77;101231.97;4973893;28;20166;-51
2022/08/14 06:50:15;;;;;;;4.90;1.88;;;;;;;24.04;78.76;101233.06;4973963;28;20182;-52
2022/08/14 06:52:41;;;;;;;5.30;1.88;;;;;;;24.09;78.28;101221.69;4973749;28;20213;-49
2022/08/14 06:55:09;;;;;;;5.60;1.30;;;;;;;24.29;77.78;101219.91;4973702;28;20217;-50
2022/08/14 06:57:40;;;;;;;5.32;1.92;;;;;;;24.22;77.39;101224.22;4973500;28;20266;-50
2022/08/14 07:00:10;;;;;;;6.03;1.95;;;;;;;23.92;77.30;101228.69;4973966;28;20594;-50
2022/08/14 07:08:04;;;;;;;7.68;2.25;;;;;;;24.20;76.68;101235.28;4986445;28;20192;-51
2022/08/14 07:10:30;;;;;;;3.95;1.73;;;;;;;24.06;77.58;101241.16;4973421;28;20193;-49
2022/08/14 07:12:56;;;;;;;7.65;1.52;;;;;;;24.44;76.38;101242.31;4973423;28;20598;-50
2022/08/14 07:15:22;;;;;;;2.85;1.60;;;;;;;24.67;75.07;101230.16;4973084;28;20180;-51
2022/08/14 07:17:49;;;;;;;5.50;1.73;;;;;;;25.11;74.92;101228.94;4973515;28;20166;-49
2022/08/14 07:20:17;;;;;;;11.85;1.95;;;;;;;24.75;74.38;101224.00;4973186;28;20538;-49
2022/08/14 07:22:44;;;;;;;9.95;1.80;;;;;;;24.72;74.35;101229.75;4973215;28;20624;-50
2022/08/14 07:25:09;;;;;;;1.60;1.50;;;;;;;24.45;74.84;101224.88;4972971;28;20174;-50
2022/08/14 07:27:35;;;;;;;7.65;1.90;;;;;;;24.74;74.59;101218.66;4985299;28;20682;-48
2022/08/14 07:30:10;;;;;;;5.43;1.63;;;;;;;24.82;74.18;101216.94;4992791;28;20641;-51
2022/08/14 07:32:36;;;;;;;4.50;1.90;;;;;;;25.14;74.33;101203.97;4993178;28;20291;-50
2022/08/14 07:35:02;;;;;;;4.25;1.50;;;;;;;24.80;74.47;101201.63;4992059;28;20248;-51
2022/08/14 07:37:27;;;;;;;7.72;2.13;;;;;;;24.60;75.00;101209.81;4992623;28;20177;-51
2022/08/14 07:39:53;;;;;;;3.20;1.60;;;;;;;24.54;75.03;101204.91;4992372;28;20177;-49
2022/08/14 07:42:18;;;;;;;7.97;2.42;;;;;;;24.33;74.50;101199.47;4992363;28;20247;-49
2022/08/14 07:44:44;;;;;;;8.23;1.83;;;;;;;25.15;74.47;101202.97;4992126;28;20177;-50
2022/08/14 07:47:09;;;;;;;4.88;1.92;;;;;;;25.51;73.85;101195.00;4992366;28;20204;-50
2022/08/14 07:49:35;;;;;;;6.57;1.95;;;;;;;26.12;71.25;101201.94;4992241;28;20173;-49
2022/08/14 07:52:02;;;;;;;6.25;1.80;;;;;;;25.62;70.09;101203.06;4992302;28;20185;-51
2022/08/14 07:54:28;;;;;;;5.78;1.70;;;;;;;25.85;69.44;101203.59;4991757;28;20216;-49
2022/08/14 07:56:53;;;;;;;7.70;1.90;;;;;;;25.80;68.71;101203.16;4992268;28;20165;-49
2022/08/14 07:59:20;;;;;;;5.18;1.92;;;;;;;26.09;69.16;101201.22;4992143;28;20198;-49
2022/08/14 08:01:46;;;;;;;4.93;1.83;;;;;;;26.26;68.95;101205.06;4992486;28;20552;-49
2022/08/14 08:04:13;;;;;;;7.25;2.08;;;;;;;26.09;67.94;101206.72;4991537;28;20189;-48
2022/08/14 08:06:39;;;;;;;6.47;2.00;;;;;;;26.24;67.65;101195.25;4991917;28;20262;-49
2022/08/14 08:09:08;;;;;;;12.55;2.42;;;;;;;26.46;67.23;101196.72;4992142;28;20169;-48
2022/08/14 08:11:35;;;;;;;7.47;2.05;;;;;;;26.30;67.27;101197.38;4989711;28;20184;-49
2022/08/14 08:14:06;;;;;;;4.57;1.88;;;;;;;26.33;67.34;101190.69;4991447;28;20719;-50
2022/08/14 08:16:33;;;;;;;5.15;1.70;;;;;;;26.35;67.09;101189.56;4991459;28;20642;-49
2022/08/14 08:18:58;;;;;;;5.28;1.70;;;;;;;26.22;67.20;101181.66;4991644;28;20659;-48
2022/08/14 08:21:25;;;;;;;7.45;2.15;;;;;;;26.28;68.01;101174.69;4991863;28;20263;-50
2022/08/14 08:23:51;;;;;;;5.93;1.77;;;;;;;26.39;66.90;101179.09;4990613;28;20211;-48
2022/08/14 08:26:17;;;;;;;8.90;1.80;;;;;;;26.45;66.13;101189.50;4989333;28;20201;-48
2022/08/14 08:28:43;;;;;;;4.40;1.90;;;;;;;26.58;66.93;101175.41;4972193;28;20224;-49
2022/08/14 08:31:10;;;;;;;7.10;2.50;;;;;;;26.54;65.59;101180.31;4972329;28;20268;-48
2022/08/14 08:33:37;;;;;;;7.70;2.20;;;;;;;26.53;64.06;101181.34;4971984;28;20340;-50
2022/08/14 08:36:10;;;;;;;4.05;2.05;;;;;;;26.68;64.01;101185.34;4971022;28;20656;-47
2022/08/14 08:38:35;;;;;;;4.68;2.05;;;;;;;26.90;64.48;101174.91;4972005;28;20252;-50
2022/08/14 08:41:02;;;;;;;4.88;2.08;;;;;;;26.49;65.37;101185.41;4972053;28;20256;-47
2022/08/14 08:43:31;;;;;;;8.30;1.98;;;;;;;25.77;67.08;101187.88;4971149;28;20276;-49
2022/08/14 08:46:02;;;;;;;3.78;2.22;;;;;;;25.59;68.02;101176.81;4971755;28;20207;-47
2022/08/14 08:48:45;;;;;;;7.20;2.22;;;;;;;25.53;67.62;101176.53;4971858;28;20248;-49
2022/08/14 08:51:37;;;;;;;9.63;2.13;;;;;;;25.65;66.63;101172.63;4971493;28;20208;-48
2022/08/14 08:54:06;;;;;;;5.68;2.40;;;;;;;25.48;66.75;101171.50;4971862;28;20259;-47
2022/08/14 08:56:33;;;;;;;7.25;2.47;;;;;;;25.57;66.82;101170.59;4972458;28;20165;-48
2022/08/14 08:58:59;;;;;;;5.78;2.47;;;;;;;25.52;66.20;101169.28;4971830;28;20166;-48
2022/08/14 09:01:32;;;;;;;7.03;2.63;;;;;;;25.56;65.41;101166.13;4972028;28;20538;-48
2022/08/14 09:04:04;;;;;;;4.30;2.42;;;;;;;25.62;65.66;101151.78;4971327;28;20194;-46
2022/08/14 09:06:29;;;;;;;7.70;2.50;;;;;;;25.69;65.56;101157.56;4971883;28;20736;-49
2022/08/14 09:08:55;;;;;;;3.92;2.60;;;;;;;25.74;65.95;101163.47;4971670;28;20162;-48
2022/08/14 09:11:22;;;;;;;7.95;2.40;;;;;;;26.04;65.74;101158.75;4971805;28;20280;-49
2022/08/14 09:13:52;;;;;;;6.90;2.50;;;;;;;25.84;65.45;101158.78;4971551;28;20193;-47
2022/08/14 09:16:23;;;;;;;6.00;2.92;;;;;;;25.92;65.94;101157.22;4971352;28;20236;-48
2022/08/14 09:18:49;;;;;;;5.88;2.50;;;;;;;25.68;65.55;101153.94;4970625;28;20175;-48
2022/08/14 09:21:15;;;;;;;4.32;2.65;;;;;;;25.55;66.29;101150.66;4971598;28;20178;-49
2022/08/14 09:23:40;;;;;;;6.30;2.97;;;;;;;25.56;66.26;101151.53;4979016;28;20197;-46
2022/08/14 09:26:06;;;;;;;7.18;2.65;;;;;;;25.77;65.92;101143.94;4990645;28;20254;-46
2022/08/14 09:28:31;;;;;;;7.70;2.80;;;;;;;25.80;66.20;101138.19;4990679;28;20351;-48
2022/08/14 09:30:58;;;;;;;4.22;3.17;;;;;;;26.00;66.16;101158.22;4991184;28;20215;-47
2022/08/14 09:33:30;;;;;;;10.68;3.40;;;;;;;26.01;65.47;101146.19;4988535;28;20275;-47
2022/08/14 09:36:06;;;;;;;3.65;2.92;;;;;;;25.92;65.19;101149.84;4991148;28;20595;-48
2022/08/14 09:39:11;;;;;;;7.32;3.13;;;;;;;25.75;64.63;101153.34;4990329;28;20178;-46
2022/08/14 09:42:14;;;;;;;4.18;2.50;;;;;;;25.84;64.27;101152.44;4990633;28;20604;-45
2022/08/14 09:44:55;;;;;;;4.63;3.08;;;;;;;25.93;64.00;101145.22;4990230;28;20169;-47
2022/08/14 09:47:43;;;;;;;7.28;2.90;;;;;;;25.77;64.23;101138.47;4990176;28;20247;-47
2022/08/14 09:50:46;;;;;;;4.15;3.10;;;;;;;26.05;64.77;101133.91;4990501;28;20178;-45
2022/08/14 09:53:33;;;;;;;5.75;3.38;;;;;;;25.96;64.46;101144.94;4990153;28;20601;-45
2022/08/14 09:56:00;;;;;;;5.50;3.17;;;;;;;26.08;64.59;101144.56;4994417;28;20310;-48
2022/08/14 09:58:41;;;;;;;9.55;3.17;;;;;;;26.05;64.68;101133.03;4994170;28;20274;-47
2022/08/14 10:01:18;;;;;;;7.68;3.50;;;;;;;26.20;65.06;101141.63;4993677;28;20184;-47
2022/08/14 10:03:53;;;;;;;6.05;3.63;;;;;;;26.16;62.69;101127.34;4993947;28;20196;-45
2022/08/14 10:06:23;;;;;;;10.20;3.10;;;;;;;26.23;64.35;101138.56;4994494;28;20218;-46
2022/08/14 10:08:59;;;;;;;6.10;2.95;;;;;;;26.26;64.99;101130.00;4992818;28;20169;-47
2022/08/14 10:11:28;;;;;;;7.50;3.10;;;;;;;26.14;63.90;101132.13;4994389;28;20172;-45
2022/08/14 10:14:09;;;;;;;10.90;3.60;;;;;;;25.91;62.25;101123.44;4993650;28;20545;-47
2022/08/14 10:16:45;;;;;;;7.60;3.60;;;;;;;25.83;62.07;101118.66;4994037;28;20583;-46
2022/08/14 10:19:14;;;;;;;7.13;3.55;;;;;;;25.83;62.66;101121.41;4994650;28;20164;-47
2022/08/14 10:21:42;;;;;;;6.18;3.42;;;;;;;25.88;62.26;101116.34;4994551;28;20200;-49
2022/08/14 10:24:22;;;;;;;6.95;3.55;;;;;;;25.64;62.54;101115.97;4993572;28;20632;-50
2022/08/14 10:26:56;;;;;;;5.55;3.40;;;;;;;25.69;63.13;101111.78;4992078;28;20639;-48
2022/08/14 10:29:34;;;;;;;9.63;3.75;;;;;;;25.44;63.87;101106.94;4994000;28;20177;-50
2022/08/14 10:31:59;;;;;;;6.15;3.30;;;;;;;25.61;63.42;101103.44;4994000;28;20517;-48
2022/08/14 10:34:33;;;;;;;7.90;3.40;;;;;;;25.87;63.83;101098.13;4993794;28;20200;-49
2022/08/14 10:37:10;;;;;;;7.03;3.38;;;;;;;25.69;64.72;101099.91;4993651;28;20171;-49
2022/08/14 10:39:38;;;;;;;7.68;3.58;;;;;;;25.66;64.49;101103.84;4993418;28;20292;-48
2022/08/14 10:42:06;;;;;;;3.83;2.97;;;;;;;25.74;64.92;101083.03;4992642;28;20189;-49
2022/08/14 10:44:35;;;;;;;8.25;3.40;;;;;;;25.54;65.96;101098.66;4993191;28;20180;-48
2022/08/14 10:47:08;;;;;;;8.55;3.35;;;;;;;25.67;67.01;101080.00;4993655;28;20204;-50
2022/08/14 10:49:54;;;;;;;4.38;2.90;;;;;;;25.56;67.10;101082.94;4993650;28;20707;-49
2022/08/14 10:52:25;;;;;;;8.65;3.47;;;;;;;25.78;66.16;101085.31;4993564;28;20615;-49
2022/08/14 10:54:51;;;;;;;9.15;3.50;;;;;;;25.62;65.96;101079.59;4992872;28;20640;-48
2022/08/14 10:57:25;;;;;;;5.53;3.30;;;;;;;25.74;66.01;101077.53;4993358;28;20219;-48
2022/08/14 10:59:57;;;;;;;6.53;3.38;;;;;;;25.58;65.71;101076.31;4993196;28;20177;-49
2022/08/14 11:02:36;;;;;;;9.15;3.25;;;;;;;25.76;66.48;101072.72;4992900;28;20264;-48
2022/08/14 11:05:14;;;;;;;6.10;3.22;;;;;;;25.79;67.12;101070.56;4990822;28;20173;-48
2022/08/14 11:07:59;;;;;;;6.88;3.30;;;;;;;25.88;66.38;101068.81;4993058;28;20211;-47
2022/08/14 11:10:55;;;;;;;7.88;3.60;;;;;;;25.82;65.72;101073.00;4993566;28;20196;-50
2022/08/14 11:13:24;;;;;;;9.27;3.10;;;;;;;25.88;67.12;101069.66;4992467;28;20208;-50
2022/08/14 11:15:51;;;;;;;11.43;3.35;;;;;;;25.99;65.27;101060.38;4993118;28;20188;-49
2022/08/14 11:18:17;;;;;;;10.43;3.28;;;;;;;26.01;65.11;101072.06;4992692;28;20187;-50
2022/08/14 11:20:55;;;;;;;6.32;3.10;;;;;;;25.86;65.44;101059.81;4993155;28;20175;-49
2022/08/14 11:23:32;;;;;;;8.88;3.20;;;;;;;25.81;66.45;101064.94;4992557;28;20204;-50
2022/08/14 11:25:59;;;;;;;5.75;2.88;;;;;;;25.81;64.97;101054.81;4992652;28;20184;-50
2022/08/14 11:28:32;;;;;;;3.80;2.60;;;;;;;25.81;64.51;101060.28;4992722;28;20711;-49
2022/08/14 11:31:00;;;;;;;5.53;2.75;;;;;;;25.89;65.05;101060.44;4992926;28;20173;-49
2022/08/14 11:33:31;;;;;;;4.88;2.90;;;;;;;25.70;65.13;101057.75;4992570;28;20204;-50
2022/08/14 11:36:04;;;;;;;6.93;2.45;;;;;;;25.73;65.48;101049.19;4992453;28;20256;-51
2022/08/14 11:38:41;;;;;;;6.80;2.60;;;;;;;26.00;64.80;101047.50;4991605;28;20169;-50
2022/08/14 11:41:10;;;;;;;4.35;2.35;;;;;;;26.04;63.48;101052.56;4992499;28;20172;-48
2022/08/14 11:43:40;;;;;;;4.45;2.47;;;;;;;26.04;63.04;101046.16;4992194;28;20193;-49
2022/08/14 11:46:06;;;;;;;7.00;2.63;;;;;;;25.89;62.95;101059.56;4992398;28;20204;-48
2022/08/14 11:48:32;;;;;;;4.65;2.70;;;;;;;25.88;62.74;101046.84;4992155;28;20173;-51
2022/08/14 11:50:59;;;;;;;9.40;2.53;;;;;;;25.90;63.31;101042.94;4992721;28;20172;-49
2022/08/14 11:53:30;;;;;;;7.45;2.70;;;;;;;26.03;63.15;101037.06;4991673;28;20196;-51